Time;durP1;ratioP1;P1;durP2;ratioP2;P2;SDS_P1;SDS_P2;PMS_P1;PMS_P2;Temp;Humidity;BMP_temperature;BMP_pressure;BME280_temperature;BME280_humidity;BME280_pressure;Samples;Min_cycle;Max_cycle;Signal;HPM_P1;HPM_P2
2022/10/14 00:01:10;;;;;;;38.00;25.40;;;;;;;5.74;74.66;97570.30;1758023;81;26209;-88
2022/10/14 00:03:39;;;;;;;44.80;26.37;;;;;;;5.74;74.58;97567.61;1734233;81;26438;-87
2022/10/14 00:06:11;;;;;;;45.55;26.82;;;;;;;5.69;74.55;97565.45;1736775;81;25869;-88
2022/10/14 00:08:37;;;;;;;47.98;26.57;;;;;;;5.64;74.58;97565.17;1745180;81;25700;-88
2022/10/14 00:11:11;;;;;;;41.80;25.80;;;;;;;5.61;74.64;97562.00;1750029;81;27322;-88
2022/10/14 00:13:38;;;;;;;39.30;25.25;;;;;;;5.59;74.54;97564.02;1757992;81;25713;-88
2022/10/14 00:16:08;;;;;;;40.20;25.02;;;;;;;5.57;74.52;97562.02;1737151;81;25724;-89
2022/10/14 00:18:35;;;;;;;37.98;25.23;;;;;;;5.53;74.47;97562.05;1737531;80;25635;-88
2022/10/14 00:21:02;;;;;;;39.73;24.32;;;;;;;5.50;74.50;97554.37;1758164;81;25836;-88
2022/10/14 00:23:29;;;;;;;37.98;24.63;;;;;;;5.43;74.46;97551.03;1757753;81;27409;-88
2022/10/14 00:25:55;;;;;;;39.08;22.85;;;;;;;5.38;74.55;97554.77;1741273;81;25768;-87
2022/10/14 00:28:22;;;;;;;38.42;23.62;;;;;;;5.34;74.60;97545.91;1732444;81;25309;-88
2022/10/14 00:30:57;;;;;;;39.13;24.00;;;;;;;5.29;74.60;97547.79;1758187;81;26471;-89
2022/10/14 00:33:25;;;;;;;35.38;23.83;;;;;;;5.29;74.68;97545.11;1739251;81;25653;-88
2022/10/14 00:35:57;;;;;;;37.05;23.75;;;;;;;5.30;74.64;97553.48;1727892;81;27602;-89
2022/10/14 00:38:25;;;;;;;33.33;22.62;;;;;;;5.29;74.69;97549.13;1745484;81;25855;-87
2022/10/14 00:40:52;;;;;;;37.73;22.75;;;;;;;5.22;74.65;97541.45;1758136;81;25715;-88
2022/10/14 00:43:21;;;;;;;38.28;23.80;;;;;;;5.22;74.74;97541.45;1756585;81;25685;-88
2022/10/14 00:45:48;;;;;;;36.70;23.95;;;;;;;5.20;74.64;97543.45;1755284;81;25741;-89
2022/10/14 00:48:18;;;;;;;40.00;24.43;;;;;;;5.19;74.68;97544.50;1755460;81;27193;-88
2022/10/14 00:50:48;;;;;;;35.60;22.32;;;;;;;5.16;74.68;97544.84;1757694;81;25767;-88
2022/10/14 00:53:15;;;;;;;32.35;20.88;;;;;;;5.09;74.72;97551.88;1755896;81;25750;-88
2022/10/14 00:55:42;;;;;;;33.35;21.27;;;;;;;5.08;74.86;97555.55;1758073;81;25843;-88
2022/10/14 00:58:09;;;;;;;32.58;20.45;;;;;;;5.04;74.88;97548.90;1755934;81;26408;-87
2022/10/14 01:00:37;;;;;;;34.05;20.92;;;;;;;5.04;74.98;97544.89;1756511;81;27352;-88
2022/10/14 01:03:18;;;;;;;34.38;22.90;;;;;;;5.05;74.98;97540.70;1790147;79;25227;-87
2022/10/14 01:05:50;;;;;;;37.25;22.90;;;;;;;5.07;75.03;97543.21;1797516;79;25724;-88
2022/10/14 01:08:28;;;;;;;36.17;23.35;;;;;;;5.06;75.02;97541.04;1803342;79;32395;-87
2022/10/14 01:11:03;;;;;;;34.23;22.22;;;;;;;5.02;75.05;97537.53;1807458;79;25638;-88
2022/10/14 01:13:36;;;;;;;37.20;22.58;;;;;;;4.97;75.05;97534.03;1760438;80;27424;-88
2022/10/14 01:16:41;;;;;;;34.33;22.15;;;;;;;4.97;75.11;97531.35;1775566;80;25823;-88
2022/10/14 01:19:29;;;;;;;31.57;20.90;;;;;;;4.98;75.13;97529.01;1781188;79;25692;-87
2022/10/14 01:22:16;;;;;;;36.83;23.67;;;;;;;4.97;75.05;97534.53;1774056;80;25741;-88
2022/10/14 01:25:05;;;;;;;37.00;23.40;;;;;;;4.94;75.09;97530.38;1781257;80;25741;-88
2022/10/14 01:27:49;;;;;;;36.53;23.40;;;;;;;4.90;75.14;97526.88;1756125;80;27629;-88
2022/10/14 01:30:23;;;;;;;36.90;23.32;;;;;;;4.86;75.07;97526.88;1772660;80;25268;-88
2022/10/14 01:33:12;;;;;;;32.75;23.10;;;;;;;4.76;75.05;97520.40;1781271;80;25714;-89
2022/10/14 01:35:59;;;;;;;32.30;22.05;;;;;;;4.74;75.20;97521.07;1757641;80;25787;-88
2022/10/14 01:38:37;;;;;;;40.08;23.57;;;;;;;4.75;75.28;97521.91;1755580;80;25906;-88
2022/10/14 01:41:31;;;;;;;31.97;21.82;;;;;;;4.78;75.20;97526.92;1756976;80;27350;-89
2022/10/14 01:44:02;;;;;;;33.02;21.40;;;;;;;4.70;75.26;97524.61;1732740;80;25769;-88
2022/10/14 01:46:32;;;;;;;39.83;23.07;;;;;;;4.68;75.38;97526.62;1713580;80;25780;-88
2022/10/14 01:49:04;;;;;;;41.10;22.48;;;;;;;4.67;75.38;97524.95;1781359;80;25788;-88
2022/10/14 01:51:51;;;;;;;35.65;23.60;;;;;;;4.67;75.37;97530.30;1766020;80;26438;-88
2022/10/14 01:54:29;;;;;;;38.40;23.25;;;;;;;4.63;75.31;97528.96;1764312;80;28266;-87
2022/10/14 01:57:00;;;;;;;37.75;21.77;;;;;;;4.62;75.33;97520.60;1770626;80;26370;-88
2022/10/14 01:59:28;;;;;;;37.95;22.40;;;;;;;4.64;75.37;97522.61;1774491;80;25738;-88
2022/10/14 02:01:55;;;;;;;33.02;21.25;;;;;;;4.67;75.53;97525.45;1771852;80;25768;-89
2022/10/14 02:04:22;;;;;;;33.78;21.93;;;;;;;4.71;75.72;97522.24;1735185;81;25878;-88
2022/10/14 02:07:03;;;;;;;32.35;22.42;;;;;;;4.74;75.68;97518.90;1746220;80;27447;-89
2022/10/14 02:09:53;;;;;;;32.13;21.60;;;;;;;4.75;75.66;97517.89;1745522;80;25659;-88
2022/10/14 02:12:37;;;;;;;29.98;22.17;;;;;;;4.73;75.68;97514.05;1754923;80;25820;-88
2022/10/14 02:15:09;;;;;;;31.27;21.57;;;;;;;4.69;75.70;97516.26;1754746;80;26515;-89
2022/10/14 02:17:39;;;;;;;;;;;;;;;4.68;75.77;97515.92;1742237;80;25777;-88
2022/10/14 02:20:26;;;;;;;31.87;22.27;;;;;;;4.66;76.08;97515.26;1743521;78;27390;-88
2022/10/14 02:23:01;;;;;;;38.42;22.35;;;;;;;4.62;76.00;97509.91;1778704;78;25899;-88
2022/10/14 02:25:38;;;;;;;35.13;23.95;;;;;;;4.61;76.17;97509.58;1789762;78;25744;-88
2022/10/14 02:28:08;;;;;;;42.53;25.00;;;;;;;4.56;76.40;97509.27;1770831;78;26043;-88
2022/10/14 02:30:40;;;;;;;40.78;24.90;;;;;;;4.54;76.64;97511.78;1785764;78;26386;-88
2022/10/14 02:33:07;;;;;;;38.65;25.02;;;;;;;4.52;76.82;97514.62;1767348;78;27466;-87
2022/10/14 02:35:36;;;;;;;39.73;24.70;;;;;;;4.52;76.97;97507.10;1781219;78;25698;-86
2022/10/14 02:38:05;;;;;;;43.85;25.65;;;;;;;4.53;77.02;97510.94;1775696;78;25681;-87
2022/10/14 02:40:36;;;;;;;40.88;24.32;;;;;;;4.57;77.01;97506.94;1755839;78;25887;-87
2022/10/14 02:43:03;;;;;;;41.85;25.10;;;;;;;4.62;77.01;97508.57;1790669;78;25791;-87
2022/10/14 02:45:30;;;;;;;40.67;25.50;;;;;;;4.63;77.07;97507.56;1782072;78;27318;-87
2022/10/14 02:47:56;;;;;;;37.88;25.72;;;;;;;4.67;77.06;97503.55;1790398;78;25716;-87
2022/10/14 02:50:23;;;;;;;34.98;24.43;;;;;;;4.67;77.00;97499.55;1782062;78;25734;-87
2022/10/14 02:52:49;;;;;;;31.48;22.58;;;;;;;4.69;76.85;97496.70;1811169;78;26438;-88
2022/10/14 02:55:16;;;;;;;35.55;23.60;;;;;;;4.68;76.79;97495.87;1785464;78;25634;-87
2022/10/14 02:57:43;;;;;;;32.70;23.20;;;;;;;4.65;76.80;97493.53;1787343;78;27350;-88
2022/10/14 03:00:11;;;;;;;33.73;22.25;;;;;;;4.67;76.85;97498.21;1790311;78;26248;-87
2022/10/14 03:02:37;;;;;;;31.60;21.82;;;;;;;4.69;76.84;97502.89;1782992;78;25325;-87
2022/10/14 03:05:05;;;;;;;33.23;22.95;;;;;;;4.71;76.85;97493.33;1787190;78;25807;-86
2022/10/14 03:07:32;;;;;;;33.63;23.92;;;;;;;4.73;76.84;97490.48;1785539;78;25901;-88
2022/10/14 03:09:58;;;;;;;44.42;25.85;;;;;;;4.70;76.80;97493.86;1788495;78;27380;-88
2022/10/14 03:12:25;;;;;;;58.63;32.70;;;;;;;4.68;76.81;97490.52;1778746;78;26459;-88
2022/10/14 03:14:52;;;;;;;53.13;34.92;;;;;;;4.67;76.85;97492.03;1788042;78;25741;-86
2022/10/14 03:17:18;;;;;;;44.75;32.88;;;;;;;4.65;76.96;97490.86;1786103;78;25813;-88
2022/10/14 03:19:45;;;;;;;37.98;28.42;;;;;;;4.66;77.07;97486.34;1809767;78;25321;-88
2022/10/14 03:22:11;;;;;;;35.63;24.75;;;;;;;4.67;77.11;97486.17;1804279;79;27404;-88
2022/10/14 03:24:38;;;;;;;35.23;23.22;;;;;;;4.68;77.15;97485.17;1803944;79;25667;-87
2022/10/14 03:27:05;;;;;;;37.10;24.90;;;;;;;4.70;77.09;97490.35;1803671;79;26333;-87
2022/10/14 03:29:31;;;;;;;35.08;22.35;;;;;;;4.71;76.96;97486.64;1787523;79;26513;-87
2022/10/14 03:31:58;;;;;;;30.37;21.87;;;;;;;4.70;76.92;97483.16;1772345;79;25802;-87
2022/10/14 03:34:24;;;;;;;40.60;25.82;;;;;;;4.69;76.95;97482.83;1785920;79;27461;-87
2022/10/14 03:36:51;;;;;;;43.00;27.20;;;;;;;4.65;76.97;97481.50;1781683;79;25809;-87
2022/10/14 03:39:17;;;;;;;48.23;31.37;;;;;;;4.65;77.01;97486.84;1804053;79;25682;-87
2022/10/14 03:41:44;;;;;;;48.17;31.25;;;;;;;4.62;76.98;97481.00;1804014;79;26484;-89
2022/10/14 03:44:10;;;;;;;49.35;33.67;;;;;;;4.57;77.00;97477.53;1796085;79;25282;-87
2022/10/14 03:46:37;;;;;;;46.42;33.15;;;;;;;4.56;77.08;97481.20;1790015;79;27359;-87
2022/10/14 03:49:04;;;;;;;43.68;31.50;;;;;;;4.56;77.12;97480.37;1803872;79;25923;-87
2022/10/14 03:51:30;;;;;;;48.28;33.33;;;;;;;4.57;77.06;97476.19;1792450;79;25735;-88
2022/10/14 03:53:57;;;;;;;46.28;32.40;;;;;;;4.57;77.06;97472.18;1795745;79;25800;-88
2022/10/14 03:56:23;;;;;;;42.50;29.57;;;;;;;4.57;76.98;97476.19;1803994;79;26040;-88
2022/10/14 03:58:50;;;;;;;45.12;27.45;;;;;;;4.57;76.92;97474.85;1799862;79;28051;-88
2022/10/14 04:01:16;;;;;;;41.80;26.20;;;;;;;4.56;76.85;97469.67;1801278;79;25732;-88
2022/10/14 04:03:45;;;;;;;32.65;24.47;;;;;;;4.54;76.80;97471.18;1801370;79;25750;-89
2022/10/14 04:06:13;;;;;;;36.93;25.52;;;;;;;4.52;76.91;97473.69;1791720;79;25717;-89
2022/10/14 04:08:40;;;;;;;39.35;25.70;;;;;;;4.50;76.88;97465.83;1791395;78;25764;-88
2022/10/14 04:11:07;;;;;;;35.73;25.27;;;;;;;4.47;76.89;97466.17;1803958;79;28390;-88
2022/10/14 04:13:35;;;;;;;43.15;28.07;;;;;;;4.43;76.89;97467.54;1803782;79;25723;-87
2022/10/14 04:16:05;;;;;;;41.05;28.55;;;;;;;4.43;76.85;97458.19;1801440;79;25749;-88
2022/10/14 04:18:33;;;;;;;51.90;31.57;;;;;;;4.41;76.79;97456.18;1803745;79;26610;-89
2022/10/14 04:21:09;;;;;;;43.90;28.98;;;;;;;4.40;76.71;97460.36;1792413;79;25786;-90
2022/10/14 04:23:36;;;;;;;46.60;28.85;;;;;;;4.37;76.71;97462.03;1792224;79;28291;-88
2022/10/14 04:26:08;;;;;;;42.27;26.57;;;;;;;4.37;76.74;97459.35;1804480;79;25715;-88
2022/10/14 04:28:36;;;;;;;39.95;26.40;;;;;;;4.34;76.66;97457.38;1801273;79;25766;-89
2022/10/14 04:31:03;;;;;;;37.20;26.80;;;;;;;4.32;76.72;97455.37;1803895;79;26617;-88
2022/10/14 04:33:31;;;;;;;42.95;29.55;;;;;;;4.29;76.80;97450.87;1802194;79;25724;-87
2022/10/14 04:36:00;;;;;;;44.83;31.00;;;;;;;4.28;76.85;97456.71;1803707;79;27379;-87
2022/10/14 04:38:28;;;;;;;44.60;31.85;;;;;;;4.29;76.88;97458.88;1803772;79;25790;-88
2022/10/14 04:40:55;;;;;;;43.85;30.37;;;;;;;4.27;76.88;97452.88;1801766;79;25715;-88
2022/10/14 04:43:22;;;;;;;38.65;25.85;;;;;;;4.26;76.83;97456.55;1801383;79;25724;-87
2022/10/14 04:45:49;;;;;;;35.83;24.75;;;;;;;4.23;76.79;97454.20;1798758;79;25720;-88
2022/10/14 04:48:17;;;;;;;36.33;24.18;;;;;;;4.23;76.74;97456.88;1785613;79;28402;-87
2022/10/14 04:50:44;;;;;;;35.65;24.10;;;;;;;4.21;76.73;97450.39;1797972;79;25673;-87
2022/10/14 04:53:11;;;;;;;35.73;24.87;;;;;;;4.24;76.76;97459.88;1790185;78;25722;-86
2022/10/14 04:55:37;;;;;;;31.82;22.55;;;;;;;4.22;76.81;97458.75;1775016;79;25706;-86
2022/10/14 04:58:04;;;;;;;31.70;23.20;;;;;;;4.21;76.91;97454.91;1797344;79;25882;-87
2022/10/14 05:00:30;;;;;;;33.48;22.15;;;;;;;4.23;77.07;97451.53;1804133;79;27351;-87
2022/10/14 05:02:58;;;;;;;35.38;22.58;;;;;;;4.24;77.12;97454.04;1750061;79;55126;-87
2022/10/14 05:05:25;;;;;;;47.30;32.08;;;;;;;4.26;77.10;97453.88;1803910;79;25753;-86
2022/10/14 05:07:51;;;;;;;49.90;32.73;;;;;;;4.26;77.21;97452.53;1803728;79;25669;-87
2022/10/14 05:10:18;;;;;;;63.10;36.85;;;;;;;4.23;77.27;97451.53;1781727;79;25789;-86
2022/10/14 05:12:45;;;;;;;66.35;38.38;;;;;;;4.20;77.37;97454.06;1804057;79;28233;-85
2022/10/14 05:15:11;;;;;;;61.53;36.90;;;;;;;4.19;77.58;97456.91;1803844;79;25658;-88
2022/10/14 05:17:38;;;;;;;65.25;36.35;;;;;;;4.20;77.79;97454.56;1804137;79;25804;-87
2022/10/14 05:20:06;;;;;;;86.45;53.35;;;;;;;4.24;77.96;97454.04;1803638;79;25802;-87
2022/10/14 05:22:33;;;;;;;100.78;63.68;;;;;;;4.28;78.05;97450.53;1804000;79;25731;-87
2022/10/14 05:24:59;;;;;;;85.57;54.00;;;;;;;4.30;78.11;97446.69;1789971;79;27468;-87
2022/10/14 05:27:26;;;;;;;94.77;55.63;;;;;;;4.33;78.17;97450.87;1803787;79;25733;-87
2022/10/14 05:29:53;;;;;;;95.80;56.05;;;;;;;4.34;78.19;97448.53;1803662;79;26447;-87
2022/10/14 05:32:19;;;;;;;87.88;51.13;;;;;;;4.40;78.20;97444.32;1798490;79;26464;-88
2022/10/14 05:34:46;;;;;;;84.47;46.23;;;;;;;4.42;78.24;97451.17;1795757;79;25693;-87
2022/10/14 05:37:13;;;;;;;88.07;48.05;;;;;;;4.43;78.23;97448.83;1803592;79;27373;-86
2022/10/14 05:39:39;;;;;;;71.95;41.90;;;;;;;4.45;78.24;97450.83;1803627;79;25954;-87
2022/10/14 05:42:06;;;;;;;68.80;40.30;;;;;;;4.42;78.33;97445.83;1803999;79;25704;-86
2022/10/14 05:44:33;;;;;;;61.68;36.55;;;;;;;4.44;78.46;97447.83;1804063;79;25842;-87
2022/10/14 05:46:59;;;;;;;60.80;36.77;;;;;;;4.47;78.59;97442.11;1803798;79;25805;-87
2022/10/14 05:49:26;;;;;;;60.25;35.90;;;;;;;4.50;78.63;97439.10;1803961;78;27306;-87
2022/10/14 05:51:53;;;;;;;79.80;44.27;;;;;;;4.56;78.65;97439.77;1791228;79;25891;-87
2022/10/14 05:54:19;;;;;;;76.33;41.15;;;;;;;4.60;78.56;97445.08;1798687;79;25772;-87
2022/10/14 05:56:46;;;;;;;60.52;36.50;;;;;;;4.63;78.50;97444.73;1804047;79;25884;-88
2022/10/14 05:59:13;;;;;;;51.05;32.20;;;;;;;4.67;78.47;97438.55;1804040;78;25703;-88
2022/10/14 06:01:41;;;;;;;51.28;30.72;;;;;;;4.70;78.42;97437.70;1803779;79;27327;-87
2022/10/14 06:04:10;;;;;;;55.55;31.93;;;;;;;4.73;78.40;97433.83;1803828;79;25708;-87
2022/10/14 06:06:37;;;;;;;60.65;30.43;;;;;;;4.77;78.41;97437.00;1803990;79;25815;-88
2022/10/14 06:09:03;;;;;;;56.33;29.98;;;;;;;4.81;78.46;97430.30;1803973;79;25678;-88
2022/10/14 06:11:30;;;;;;;53.65;30.55;;;;;;;4.84;78.48;97444.14;1801989;79;25760;-87
2022/10/14 06:13:56;;;;;;;54.63;29.85;;;;;;;4.89;78.58;97444.97;1771467;79;27332;-87
2022/10/14 06:16:23;;;;;;;54.03;30.10;;;;;;;4.94;78.63;97444.78;1789169;79;25867;-88
2022/10/14 06:18:50;;;;;;;50.70;29.98;;;;;;;5.01;78.71;97439.55;1797616;79;25757;-87
2022/10/14 06:21:16;;;;;;;54.53;31.05;;;;;;;5.06;78.73;97437.20;1783910;79;25455;-87
2022/10/14 06:23:43;;;;;;;51.73;30.40;;;;;;;5.13;78.83;97440.82;1802332;79;25904;-88
2022/10/14 06:26:10;;;;;;;55.55;32.38;;;;;;;5.20;78.93;97440.43;1803602;79;27633;-88
2022/10/14 06:28:37;;;;;;;51.58;31.17;;;;;;;5.27;79.06;97437.39;1796432;79;25703;-88
2022/10/14 06:31:04;;;;;;;48.85;31.10;;;;;;;5.35;79.33;97437.33;1766669;79;26225;-87
2022/10/14 06:33:31;;;;;;;55.05;32.63;;;;;;;5.41;79.44;97444.66;1785160;79;26495;-88
2022/10/14 06:36:00;;;;;;;51.60;33.02;;;;;;;5.49;79.46;97445.09;1803857;79;25673;-88
2022/10/14 06:38:27;;;;;;;46.92;28.98;;;;;;;5.56;79.57;97446.03;1803543;79;27391;-89
2022/10/14 06:40:54;;;;;;;44.50;30.17;;;;;;;5.63;79.58;97444.83;1803936;79;25638;-87
2022/10/14 06:43:21;;;;;;;42.80;28.12;;;;;;;5.68;79.47;97446.45;1791679;79;25829;-88
2022/10/14 06:45:49;;;;;;;41.65;28.55;;;;;;;5.76;79.48;97454.44;1802087;79;26489;-87
2022/10/14 06:48:16;;;;;;;44.15;27.85;;;;;;;5.84;79.48;97453.02;1803862;79;25936;-89
2022/10/14 06:50:42;;;;;;;42.93;27.65;;;;;;;5.93;79.51;97449.28;1781138;79;27399;-89
2022/10/14 06:53:09;;;;;;;43.08;29.60;;;;;;;5.99;79.50;97453.09;1803846;78;25797;-87
2022/10/14 06:55:36;;;;;;;50.15;31.65;;;;;;;6.06;79.57;97443.30;1803988;79;25227;-89
2022/10/14 06:58:03;;;;;;;54.58;31.65;;;;;;;6.13;79.62;97447.77;1803774;79;26924;-89
2022/10/14 07:00:29;;;;;;;54.63;31.90;;;;;;;6.24;79.73;97445.66;1803822;79;25917;-88
2022/10/14 07:02:58;;;;;;;50.12;31.60;;;;;;;6.31;79.79;97443.89;1803880;79;27386;-89
2022/10/14 07:05:25;;;;;;;49.88;30.32;;;;;;;6.43;79.84;97443.77;1803744;79;25871;-89
2022/10/14 07:07:52;;;;;;;50.25;31.23;;;;;;;6.54;79.98;97439.28;1767912;79;25686;-86
2022/10/14 07:10:19;;;;;;;51.25;30.92;;;;;;;6.67;80.06;97434.61;1803899;79;25651;-91
2022/10/14 07:12:46;;;;;;;54.53;30.55;;;;;;;6.80;80.15;97433.44;1771770;79;25806;-86
2022/10/14 07:15:13;;;;;;;54.77;31.35;;;;;;;6.96;80.25;97440.46;1800408;79;28134;-88
2022/10/14 07:17:39;;;;;;;57.17;31.65;;;;;;;7.13;80.40;97436.52;1802976;79;25271;-88
2022/10/14 07:20:07;;;;;;;56.37;33.85;;;;;;;7.29;80.44;97438.98;1803920;79;25845;-89
2022/10/14 07:22:35;;;;;;;65.35;31.68;;;;;;;7.47;80.49;97439.41;1805920;79;26407;-88
2022/10/14 07:25:04;;;;;;;56.50;31.85;;;;;;;7.63;80.53;97430.24;1804379;79;25247;-89
2022/10/14 07:27:31;;;;;;;54.70;32.65;;;;;;;7.77;80.60;97435.23;1800963;79;27350;-88
2022/10/14 07:29:57;;;;;;;51.40;31.23;;;;;;;7.92;80.55;97428.77;1800970;79;25788;-88
2022/10/14 07:32:24;;;;;;;49.95;30.02;;;;;;;8.09;80.54;97422.57;1804682;79;25717;-89
2022/10/14 07:34:51;;;;;;;44.70;27.15;;;;;;;8.29;80.61;97416.84;1804450;79;25665;-87
2022/10/14 07:37:18;;;;;;;38.75;24.43;;;;;;;8.54;80.66;97421.79;1804437;79;25748;-88
2022/10/14 07:39:44;;;;;;;37.60;24.27;;;;;;;8.77;80.62;97414.25;1806994;79;28169;-88
2022/10/14 07:42:11;;;;;;;28.40;21.57;;;;;;;9.01;80.45;97421.82;1804429;79;25756;-89
2022/10/14 07:44:38;;;;;;;38.95;25.25;;;;;;;9.28;80.45;97409.28;1807136;79;25780;-89
2022/10/14 07:47:06;;;;;;;35.45;23.12;;;;;;;9.58;80.50;97408.40;1804474;79;25752;-88
2022/10/14 07:49:33;;;;;;;38.88;23.57;;;;;;;9.90;80.45;97414.84;1806992;79;25890;-89
2022/10/14 07:52:00;;;;;;;31.55;20.97;;;;;;;10.21;80.36;97418.84;1797375;79;28183;-88
2022/10/14 07:54:31;;;;;;;34.38;22.73;;;;;;;10.49;80.17;97415.38;1802862;79;25693;-88
2022/10/14 07:56:58;;;;;;;31.35;21.10;;;;;;;10.72;79.93;97409.52;1807322;79;25794;-88
2022/10/14 07:59:25;;;;;;;29.50;21.40;;;;;;;10.97;79.69;97409.64;1793038;79;25820;-88
2022/10/14 08:01:53;;;;;;;26.60;21.10;;;;;;;11.19;79.40;97406.42;1807327;79;25638;-87
2022/10/14 08:04:19;;;;;;;28.05;20.10;;;;;;;11.31;79.00;97407.92;1807173;79;27621;-88
2022/10/14 08:06:50;;;;;;;30.20;21.17;;;;;;;11.39;78.74;97410.89;1806897;79;25799;-88
2022/10/14 08:09:17;;;;;;;27.13;19.75;;;;;;;11.50;78.76;97402.09;1807230;79;26315;-88
2022/10/14 08:11:44;;;;;;;25.77;19.25;;;;;;;11.60;78.60;97405.66;1793040;79;25775;-89
2022/10/14 08:14:11;;;;;;;28.00;18.60;;;;;;;11.66;78.07;97401.58;1807243;79;25725;-88
2022/10/14 08:16:39;;;;;;;23.75;18.48;;;;;;;11.85;77.96;97396.58;1807171;79;27339;-87
2022/10/14 08:19:10;;;;;;;26.68;18.25;;;;;;;12.14;77.88;97391.05;1807222;79;25762;-88
2022/10/14 08:21:36;;;;;;;25.90;18.92;;;;;;;12.41;77.62;97388.93;1806239;77;25685;-87
2022/10/14 08:24:03;;;;;;;27.25;17.10;;;;;;;12.56;77.19;97394.79;1804050;79;26469;-87
2022/10/14 08:26:49;;;;;;;27.82;19.62;;;;;;;12.67;76.61;97396.48;1804122;79;26332;-88
2022/10/14 08:29:16;;;;;;;23.85;18.52;;;;;;;12.78;76.48;97390.31;1803830;79;27457;-88
2022/10/14 08:31:43;;;;;;;24.90;17.73;;;;;;;13.04;76.39;97388.63;1804071;79;25231;-88
2022/10/14 08:34:10;;;;;;;27.10;16.90;;;;;;;13.28;76.04;97386.92;1804251;79;25731;-88
2022/10/14 08:36:37;;;;;;;27.15;17.77;;;;;;;13.48;75.36;97390.18;1804041;79;26549;-87
2022/10/14 08:39:05;;;;;;;24.02;17.23;;;;;;;13.62;74.83;97386.75;1804180;79;25599;-88
2022/10/14 08:42:21;;;;;;;19.98;16.40;;;;;;;13.70;74.47;97386.41;1804199;79;27364;-88
2022/10/14 08:44:55;;;;;;;23.27;16.70;;;;;;;13.73;74.18;97384.60;1803880;79;25662;-88
2022/10/14 08:47:27;;;;;;;19.95;15.53;;;;;;;13.69;73.96;97386.11;1800826;79;25654;-88
2022/10/14 08:50:20;;;;;;;18.02;13.48;;;;;;;13.66;74.11;97379.79;1793736;79;25803;-88
2022/10/14 08:53:06;;;;;;;19.05;13.65;;;;;;;13.66;73.70;97388.75;1781143;79;25891;-88
2022/10/14 08:55:40;;;;;;;16.55;14.13;;;;;;;13.69;73.52;97390.19;1769448;79;27526;-88
2022/10/14 08:58:24;;;;;;;19.32;14.18;;;;;;;13.89;73.79;97387.98;1787901;79;25826;-89
2022/10/14 09:00:52;;;;;;;20.82;13.95;;;;;;;14.11;73.66;97382.03;1784482;79;25773;-88
2022/10/14 09:03:31;;;;;;;20.25;13.58;;;;;;;14.19;73.29;97375.72;1802151;79;26581;-87
2022/10/14 09:06:02;;;;;;;17.75;13.43;;;;;;;14.25;72.92;97371.25;1784376;79;25699;-88
2022/10/14 09:08:42;;;;;;;19.02;14.43;;;;;;;14.36;72.75;97369.06;1801167;79;27613;-88
2022/10/14 09:11:17;;;;;;;22.95;14.18;;;;;;;14.47;72.38;97373.70;1780820;79;25712;-88
2022/10/14 09:13:55;;;;;;;21.20;14.60;;;;;;;14.56;71.86;97370.91;1781273;79;25793;-87
2022/10/14 09:16:36;;;;;;;22.00;15.35;;;;;;;14.62;71.65;97366.39;1802892;79;25969;-88
2022/10/14 09:19:17;;;;;;;17.95;14.58;;;;;;;14.69;71.60;97365.76;1790945;79;25761;-88
2022/10/14 09:21:53;;;;;;;19.57;14.93;;;;;;;14.75;71.60;97368.86;1775252;79;27374;-87
2022/10/14 09:24:35;;;;;;;19.77;15.18;;;;;;;14.77;70.81;97370.28;1807476;79;25686;-89
2022/10/14 09:27:08;;;;;;;;;;;;;;;14.74;70.29;97363.96;1787716;79;25657;-88
2022/10/14 09:29:43;;;;;;;22.40;14.65;;;;;;;14.77;69.88;97363.49;1807665;79;32567;-88
2022/10/14 09:32:17;;;;;;;23.38;14.68;;;;;;;14.77;70.08;97361.30;1785090;79;25706;-89
2022/10/14 09:34:50;;;;;;;20.05;14.07;;;;;;;14.81;69.85;97358.95;1765470;80;28579;-88
2022/10/14 09:37:30;;;;;;;20.35;15.15;;;;;;;14.84;69.98;97357.12;1764212;79;34830;-88
2022/10/14 09:40:14;;;;;;;22.58;15.32;;;;;;;14.90;69.45;97358.86;1761447;80;25727;-87
2022/10/14 09:43:09;;;;;;;20.20;14.55;;;;;;;14.98;68.91;97359.84;1761566;80;25701;-88
2022/10/14 09:46:06;;;;;;;21.75;14.55;;;;;;;15.05;68.31;97359.19;1761506;80;25757;-88
2022/10/14 09:48:40;;;;;;;20.20;13.25;;;;;;;15.13;68.25;97354.19;1761456;80;27642;-88
2022/10/14 09:51:27;;;;;;;19.80;14.80;;;;;;;15.18;67.60;97354.83;1790279;80;25689;-89
2022/10/14 09:53:56;;;;;;;25.62;13.35;;;;;;;15.27;67.50;97356.63;1774732;79;25750;-92
2022/10/14 09:56:36;;;;;;;17.73;13.80;;;;;;;15.40;67.51;97354.45;1761097;80;25737;-88
2022/10/14 09:59:16;;;;;;;17.00;13.08;;;;;;;15.56;67.43;97354.77;1761454;80;25256;-88
2022/10/14 10:01:59;;;;;;;20.50;13.48;;;;;;;15.67;66.83;97351.16;1769845;80;27358;-90
2022/10/14 10:04:46;;;;;;;19.55;13.13;;;;;;;15.78;65.79;97343.47;1755114;81;25816;-86
2022/10/14 10:07:32;;;;;;;17.17;12.90;;;;;;;15.84;65.93;97346.02;1717019;81;26197;-89
2022/10/14 10:10:04;;;;;;;18.45;13.00;;;;;;;15.90;65.51;97353.75;1707353;83;25919;-89
2022/10/14 10:12:34;;;;;;;18.17;14.47;;;;;;;15.89;65.21;97341.20;1707115;82;25851;-89
2022/10/14 10:15:05;;;;;;;25.70;14.73;;;;;;;15.89;65.10;97339.84;1707321;83;27438;-88
2022/10/14 10:17:36;;;;;;;16.77;13.65;;;;;;;15.91;64.71;97345.88;1705596;83;25986;-89
2022/10/14 10:20:27;;;;;;;20.55;14.60;;;;;;;15.88;64.53;97344.99;1706923;83;25602;-89
2022/10/14 10:22:51;;;;;;;24.92;14.68;;;;;;;15.85;64.40;97340.86;1756084;80;25825;-85
2022/10/14 10:25:25;;;;;;;22.77;13.93;;;;;;;15.86;64.07;97344.41;1756298;81;25429;-86
2022/10/14 10:27:51;;;;;;;17.90;13.68;;;;;;;15.86;64.07;97344.41;1756392;81;28057;-82
2022/10/14 10:30:28;;;;;;;22.32;15.43;;;;;;;15.85;63.98;97340.86;1756302;81;25770;-88
2022/10/14 10:33:21;;;;;;;24.43;15.90;;;;;;;15.89;63.85;97343.09;1756449;81;25797;-87
2022/10/14 10:36:22;;;;;;;22.45;15.48;;;;;;;15.95;63.79;97341.56;1735476;81;25713;-88
2022/10/14 10:39:17;;;;;;;25.88;15.78;;;;;;;16.06;63.90;97335.20;1752109;81;25878;-89
2022/10/14 10:42:16;;;;;;;25.82;15.68;;;;;;;16.15;63.59;97329.66;1761233;79;28159;-87
2022/10/14 10:45:07;;;;;;;24.32;17.05;;;;;;;16.20;63.46;97327.00;1790366;79;26329;-86
2022/10/14 10:47:59;;;;;;;18.67;14.68;;;;;;;16.25;63.71;97325.44;1784566;79;25475;-90
2022/10/14 10:50:54;;;;;;;22.07;14.93;;;;;;;16.30;63.75;97329.61;1785230;79;26472;-91
2022/10/14 10:53:32;;;;;;;21.50;14.87;;;;;;;16.28;63.30;97327.67;1807337;79;25934;-89
2022/10/14 10:56:38;;;;;;;21.48;15.70;;;;;;;16.25;63.33;97326.27;1804013;79;28208;-88
2022/10/14 10:59:46;;;;;;;23.10;15.90;;;;;;;16.19;63.15;97325.34;1761333;80;25977;-90
2022/10/14 11:02:36;;;;;;;26.85;16.73;;;;;;;16.15;62.87;97324.75;1775788;80;25295;-92
2022/10/14 11:05:31;;;;;;;22.93;16.10;;;;;;;16.09;62.84;97322.47;1762753;79;25747;-90
2022/10/14 11:14:45;;;;;;;20.95;15.65;;;;;;;16.11;63.13;97316.24;1773468;80;25686;-92
2022/10/14 11:17:46;;;;;;;23.07;16.70;;;;;;;16.13;63.04;97310.02;1757241;80;25249;-90
2022/10/14 11:20:26;;;;;;;25.55;16.57;;;;;;;16.16;62.97;97303.25;1756164;80;25758;-92
2022/10/14 11:23:07;;;;;;;23.05;16.10;;;;;;;16.19;63.02;97303.56;1752096;80;25841;-89
2022/10/14 11:26:01;;;;;;;20.77;16.12;;;;;;;16.25;62.76;97296.30;1725245;82;27419;-92
2022/10/14 11:28:50;;;;;;;22.60;16.75;;;;;;;16.31;62.37;97298.01;1749613;81;26287;-90
2022/10/14 11:31:27;;;;;;;21.40;15.88;;;;;;;16.31;62.17;97298.55;1730768;81;25984;-89
2022/10/14 11:34:05;;;;;;;23.77;15.15;;;;;;;16.35;62.25;97289.63;1716388;81;25811;-92
2022/10/14 11:36:54;;;;;;;24.80;17.45;;;;;;;16.37;62.16;97296.20;1750134;81;25722;-91
2022/10/14 11:39:50;;;;;;;26.50;16.60;;;;;;;16.40;62.60;97294.34;1749384;81;27431;-92
2022/10/14 11:42:37;;;;;;;20.95;15.98;;;;;;;16.53;62.39;97293.98;1750167;81;25663;-90
2022/10/14 11:45:45;;;;;;;21.00;16.75;;;;;;;16.69;62.14;97293.66;1745740;81;25702;-92
2022/10/14 11:48:44;;;;;;;22.90;16.65;;;;;;;16.76;61.69;97289.69;1750130;81;25755;-88
2022/10/14 11:51:16;;;;;;;21.75;16.17;;;;;;;16.80;61.57;97282.63;1690676;84;25829;-91
2022/10/14 11:53:48;;;;;;;20.08;15.78;;;;;;;16.89;61.36;97281.13;1690175;84;28254;-92
2022/10/14 11:56:40;;;;;;;23.30;18.25;;;;;;;16.93;61.19;97278.16;1687900;84;25883;-93